WET,Max TemperatureF,Mean TemperatureF,Min TemperatureF,Max Dew PointF,MeanDew PointF,Min DewpointF,Max Humidity, Mean Humidity, Min Humidity, Max Sea Level PressureIn, Mean Sea Level PressureIn, Min Sea Level PressureIn, Max VisibilityMiles, Mean VisibilityMiles, Min VisibilityMiles, Max Wind SpeedMPH, Mean Wind SpeedMPH, Max Gust SpeedMPH,PrecipitationIn, CloudCover, Events, WindDirDegrees
2013-2-1,68,57,46,54,47,39,76,60,48,30.35,30.27,30.21,9,9,9,7,4,,0.00,,,202
2013-2-2,70,59,48,54,46,41,71,58,44,30.22,30.14,30.09,9,6,5,22,10,,0.00,2,,284
2013-2-3,64,56,48,43,39,36,66,48,28,30.35,30.29,30.24,9,6,6,14,9,,0.00,2,,305
2013-2-4,68,52,35,39,28,16,70,39,6,30.40,30.35,30.30,9,7,6,17,6,,0.00,,,131
2013-2-5,65,52,39,48,40,28,67,55,32,30.36,30.29,30.21,9,8,6,9,6,,0.00,,,192
2013-2-6,70,56,43,48,42,36,71,52,29,30.22,30.17,30.12,9,7,6,22,10,36,0.00,1,,277
2013-2-7,62,54,44,43,38,32,62,50,35,30.30,30.25,30.24,9,7,6,14,8,33,0.00,1,,264
2013-2-8,64,52,39,39,33,27,62,41,19,30.14,30.09,30.04,9,8,6,16,7,,0.00,,,290
2013-2-9,63,54,46,41,38,35,67,49,26,30.30,30.24,30.12,9,7,6,14,7,,0.00,1,,284
2013-2-10,63,51,39,45,36,27,66,48,26,30.26,30.17,30.09,9,8,6,9,6,,0.00,,,151
2013-2-11,62,54,45,48,43,34,77,61,33,30.14,30.06,29.98,6,5,5,20,13,,0.16,5,Rain,291
2013-2-12,56,54,51,48,44,39,82,67,43,30.22,30.12,30.06,6,5,4,14,10,,0.35,5,Rain,268
2013-2-13,65,54,44,52,45,34,82,59,4,30.25,30.21,30.18,9,7,6,14,8,,0.00,1,,267
2013-2-14,65,56,46,54,48,39,82,67,51,30.23,30.17,30.12,9,7,6,9,6,,0.00,1,,330
2013-2-15,63,54,44,54,50,40,82,71,4,30.18,30.14,30.12,9,7,6,9,5,,0.00,1,,342
2013-2-16,63,54,45,54,49,41,82,72,61,30.15,30.11,30.09,9,7,5,12,5,,0.00,3,,180
2013-2-17,63,56,50,52,50,45,82,72,59,30.06,30.01,29.95,6,6,6,7,5,,0.00,5,,291
2013-2-18,73,60,47,54,50,44,82,61,41,29.95,29.86,29.77,9,7,6,14,7,,0.00,5,,267
2013-2-19,64,60,55,55,52,47,82,73,64,29.84,29.80,29.74,6,6,5,9,5,,0.00,7,Rain,293
2013-2-20,65,58,51,50,47,43,76,63,47,30.08,30.00,29.92,9,6,6,16,8,,0.00,3,,260
2013-2-21,68,57,46,50,46,41,76,58,40,30.06,30.02,29.95,9,6,6,9,5,,0.00,3,,83
2013-2-22,77,66,54,52,49,46,67,50,31,29.91,29.84,29.77,9,7,6,24,8,29,0.00,4,,252
2013-2-23,64,56,49,50,47,45,82,63,49,30.04,29.88,29.74,9,6,5,22,14,43,0.28,4,Rain,291
2013-2-24,62,56,49,48,45,41,72,63,46,30.16,30.11,30.06,9,6,5,108,14,26,0.00,4,,300
2013-2-25,61,54,46,41,37,36,66,48,30,30.18,30.11,29.77,9,6,6,14,9,,0.00,2,,293
2013-2-26,63,51,39,41,37,32,75,49,27,30.13,30.07,30.01,9,7,6,22,9,33,0.00,4,,111
2013-2-27,59,49,39,45,41,32,76,59,42,29.99,29.92,29.86,9,7,6,16,8,29,0.00,5,,106
2013-2-28,64,48,32,47,42,36,76,59,39,29.89,29.84,29.77,6,6,6,16,8,,0.00,4,Rain,283